sensor_id;sensor_type;location;lat;lon;timestamp;pressure;altitude;pressure_sealevel;temperature;humidity
34658;BME280;20865;43.312;27.152;2023-04-08T00:00:29;100868.16;;;14.21;41.34
34658;BME280;20865;43.312;27.152;2023-04-08T00:02:56;100870.48;;;14.18;41.53
34658;BME280;20865;43.312;27.152;2023-04-08T00:05:23;100868.27;;;14.18;41.69
34658;BME280;20865;43.312;27.152;2023-04-08T00:07:50;100867.09;;;14.13;41.75
34658;BME280;20865;43.312;27.152;2023-04-08T00:10:17;100866.27;;;14.11;41.78
34658;BME280;20865;43.312;27.152;2023-04-08T00:12:43;100864.45;;;14.12;41.82
34658;BME280;20865;43.312;27.152;2023-04-08T00:15:10;100872.95;;;14.13;41.80
34658;BME280;20865;43.312;27.152;2023-04-08T00:17:37;100880.00;;;14.15;41.81
34658;BME280;20865;43.312;27.152;2023-04-08T00:20:04;100874.59;;;14.17;41.77
34658;BME280;20865;43.312;27.152;2023-04-08T00:22:31;100869.61;;;14.18;41.91
34658;BME280;20865;43.312;27.152;2023-04-08T00:24:58;100861.91;;;14.20;41.88
34658;BME280;20865;43.312;27.152;2023-04-08T00:27:25;100866.34;;;14.21;41.99
34658;BME280;20865;43.312;27.152;2023-04-08T00:29:52;100860.10;;;14.21;41.96
34658;BME280;20865;43.312;27.152;2023-04-08T00:32:19;100865.11;;;14.18;42.14
34658;BME280;20865;43.312;27.152;2023-04-08T00:34:46;100856.54;;;14.20;42.17
34658;BME280;20865;43.312;27.152;2023-04-08T00:37:13;100859.52;;;14.13;42.26
34658;BME280;20865;43.312;27.152;2023-04-08T00:39:40;100859.91;;;14.14;42.37
34658;BME280;20865;43.312;27.152;2023-04-08T00:42:07;100860.38;;;14.13;42.51
34658;BME280;20865;43.312;27.152;2023-04-08T00:44:34;100861.00;;;14.08;42.64
34658;BME280;20865;43.312;27.152;2023-04-08T00:47:02;100859.72;;;14.06;42.61
34658;BME280;20865;43.312;27.152;2023-04-08T00:49:32;100857.87;;;14.09;42.60
34658;BME280;20865;43.312;27.152;2023-04-08T00:51:58;100859.76;;;14.05;42.61
34658;BME280;20865;43.312;27.152;2023-04-08T00:54:26;100858.41;;;14.05;42.51
34658;BME280;20865;43.312;27.152;2023-04-08T00:56:52;100860.77;;;14.02;42.80
34658;BME280;20865;43.312;27.152;2023-04-08T00:59:19;100854.52;;;14.02;42.78
34658;BME280;20865;43.312;27.152;2023-04-08T01:01:50;100851.59;;;14.08;42.60
34658;BME280;20865;43.312;27.152;2023-04-08T01:09:37;100857.07;;;14.05;42.87
34658;BME280;20865;43.312;27.152;2023-04-08T01:12:05;100849.92;;;14.05;43.01
34658;BME280;20865;43.312;27.152;2023-04-08T01:14:37;100858.02;;;14.04;42.93
34658;BME280;20865;43.312;27.152;2023-04-08T01:17:05;100853.48;;;14.06;42.68
34658;BME280;20865;43.312;27.152;2023-04-08T01:19:33;100854.38;;;14.05;42.87
34658;BME280;20865;43.312;27.152;2023-04-08T01:24:30;100853.48;;;14.06;42.83
34658;BME280;20865;43.312;27.152;2023-04-08T01:26:57;100847.27;;;14.04;42.90
34658;BME280;20865;43.312;27.152;2023-04-08T01:29:26;100845.92;;;14.04;43.00
34658;BME280;20865;43.312;27.152;2023-04-08T01:31:53;100846.86;;;14.03;43.07
34658;BME280;20865;43.312;27.152;2023-04-08T01:34:20;100847.81;;;14.02;42.74
34658;BME280;20865;43.312;27.152;2023-04-08T01:36:48;100847.44;;;13.99;42.96
34658;BME280;20865;43.312;27.152;2023-04-08T01:39:16;100852.05;;;13.96;43.04
34658;BME280;20865;43.312;27.152;2023-04-08T01:41:44;100844.79;;;13.98;42.88
34658;BME280;20865;43.312;27.152;2023-04-08T01:44:11;100847.14;;;13.95;42.77
34658;BME280;20865;43.312;27.152;2023-04-08T01:46:39;100848.82;;;13.98;42.58
34658;BME280;20865;43.312;27.152;2023-04-08T01:49:07;100850.16;;;13.98;42.64
34658;BME280;20865;43.312;27.152;2023-04-08T01:51:35;100845.33;;;13.96;42.67
34658;BME280;20865;43.312;27.152;2023-04-08T01:54:02;100848.12;;;13.93;42.72
34658;BME280;20865;43.312;27.152;2023-04-08T01:56:29;100847.35;;;13.89;42.53
34658;BME280;20865;43.312;27.152;2023-04-08T01:58:57;100853.67;;;13.88;42.62
34658;BME280;20865;43.312;27.152;2023-04-08T02:01:26;100860.05;;;13.84;42.48
34658;BME280;20865;43.312;27.152;2023-04-08T02:03:54;100855.04;;;13.87;42.36
34658;BME280;20865;43.312;27.152;2023-04-08T02:06:22;100848.97;;;13.81;42.23
34658;BME280;20865;43.312;27.152;2023-04-08T02:08:49;100848.67;;;13.77;42.22
34658;BME280;20865;43.312;27.152;2023-04-08T02:11:16;100854.24;;;13.71;42.33
34658;BME280;20865;43.312;27.152;2023-04-08T02:13:42;100853.30;;;13.72;42.44
34658;BME280;20865;43.312;27.152;2023-04-08T02:16:13;100854.17;;;13.73;42.39
34658;BME280;20865;43.312;27.152;2023-04-08T02:18:38;100856.63;;;13.67;42.43
34658;BME280;20865;43.312;27.152;2023-04-08T02:21:08;100855.95;;;13.61;42.61
34658;BME280;20865;43.312;27.152;2023-04-08T02:23:34;100859.44;;;13.63;42.75
34658;BME280;20865;43.312;27.152;2023-04-08T02:26:02;100852.62;;;13.66;42.64
34658;BME280;20865;43.312;27.152;2023-04-08T02:28:30;100851.83;;;13.64;42.64
34658;BME280;20865;43.312;27.152;2023-04-08T02:30:58;100848.30;;;13.62;42.60
34658;BME280;20865;43.312;27.152;2023-04-08T02:33:25;100848.70;;;13.63;42.60
34658;BME280;20865;43.312;27.152;2023-04-08T02:35:53;100846.45;;;13.64;42.63
34658;BME280;20865;43.312;27.152;2023-04-08T02:38:20;100845.15;;;13.62;42.54
34658;BME280;20865;43.312;27.152;2023-04-08T02:40:48;100849.28;;;13.59;42.53
34658;BME280;20865;43.312;27.152;2023-04-08T02:43:16;100848.97;;;13.55;42.58
34658;BME280;20865;43.312;27.152;2023-04-08T02:45:43;100842.73;;;13.54;42.76
34658;BME280;20865;43.312;27.152;2023-04-08T02:48:10;100843.20;;;13.54;42.66
34658;BME280;20865;43.312;27.152;2023-04-08T02:50:37;100847.73;;;13.52;42.68
34658;BME280;20865;43.312;27.152;2023-04-08T02:53:04;100847.26;;;13.52;42.73
34658;BME280;20865;43.312;27.152;2023-04-08T02:55:31;100844.47;;;13.55;42.74
34658;BME280;20865;43.312;27.152;2023-04-08T02:57:58;100841.89;;;13.52;43.13
34658;BME280;20865;43.312;27.152;2023-04-08T03:00:25;100841.02;;;13.52;43.38
34658;BME280;20865;43.312;27.152;2023-04-08T03:02:51;100848.00;;;13.57;43.25
34658;BME280;20865;43.312;27.152;2023-04-08T03:05:18;100842.80;;;13.53;43.03
34658;BME280;20865;43.312;27.152;2023-04-08T03:07:46;100840.52;;;13.54;42.92
34658;BME280;20865;43.312;27.152;2023-04-08T03:10:13;100850.41;;;13.52;42.96
34658;BME280;20865;43.312;27.152;2023-04-08T03:12:40;100847.73;;;13.52;42.82
34658;BME280;20865;43.312;27.152;2023-04-08T03:15:07;100851.55;;;13.45;43.04
34658;BME280;20865;43.312;27.152;2023-04-08T03:17:33;100848.45;;;13.44;43.11
34658;BME280;20865;43.312;27.152;2023-04-08T03:20:01;100850.67;;;13.44;43.18
34658;BME280;20865;43.312;27.152;2023-04-08T03:22:29;100857.86;;;13.44;43.16
34658;BME280;20865;43.312;27.152;2023-04-08T03:24:56;100860.70;;;13.39;43.25
34658;BME280;20865;43.312;27.152;2023-04-08T03:27:23;100857.88;;;13.42;43.36
34658;BME280;20865;43.312;27.152;2023-04-08T03:29:50;100854.33;;;13.42;43.35
34658;BME280;20865;43.312;27.152;2023-04-08T03:32:17;100857.86;;;13.44;43.27
34658;BME280;20865;43.312;27.152;2023-04-08T03:34:44;100862.45;;;13.40;43.32
34658;BME280;20865;43.312;27.152;2023-04-08T03:37:11;100856.56;;;13.29;43.52
34658;BME280;20865;43.312;27.152;2023-04-08T03:39:38;100856.89;;;13.31;43.60
34658;BME280;20865;43.312;27.152;2023-04-08T03:42:05;100860.21;;;13.26;43.62
34658;BME280;20865;43.312;27.152;2023-04-08T03:44:32;100861.39;;;13.31;43.72
34658;BME280;20865;43.312;27.152;2023-04-08T03:46:58;100868.16;;;13.29;43.70
34658;BME280;20865;43.312;27.152;2023-04-08T03:49:25;100863.73;;;13.28;43.73
34658;BME280;20865;43.312;27.152;2023-04-08T03:51:53;100867.05;;;13.22;43.89
34658;BME280;20865;43.312;27.152;2023-04-08T03:54:20;100874.00;;;13.29;43.82
34658;BME280;20865;43.312;27.152;2023-04-08T03:56:48;100882.39;;;13.31;43.70
34658;BME280;20865;43.312;27.152;2023-04-08T03:59:15;100879.30;;;13.30;43.69
34658;BME280;20865;43.312;27.152;2023-04-08T04:01:42;100883.39;;;13.29;43.78
34658;BME280;20865;43.312;27.152;2023-04-08T04:04:09;100883.70;;;13.33;43.69
34658;BME280;20865;43.312;27.152;2023-04-08T04:06:35;100881.58;;;13.29;43.66
34658;BME280;20865;43.312;27.152;2023-04-08T04:09:02;100876.22;;;13.29;43.82
34658;BME280;20865;43.312;27.152;2023-04-08T04:11:29;100882.30;;;13.34;43.65
34658;BME280;20865;43.312;27.152;2023-04-08T04:13:56;100896.02;;;13.39;43.73
34658;BME280;20865;43.312;27.152;2023-04-08T04:16:23;100889.49;;;13.47;43.46
34658;BME280;20865;43.312;27.152;2023-04-08T04:18:50;100895.36;;;13.45;43.47
34658;BME280;20865;43.312;27.152;2023-04-08T04:21:18;100892.44;;;13.40;43.78
34658;BME280;20865;43.312;27.152;2023-04-08T04:23:45;100896.77;;;13.44;43.53
34658;BME280;20865;43.312;27.152;2023-04-08T04:26:11;100908.79;;;13.32;43.92
34658;BME280;20865;43.312;27.152;2023-04-08T04:28:38;100904.08;;;13.39;43.88
34658;BME280;20865;43.312;27.152;2023-04-08T04:31:06;100903.17;;;13.40;44.01
34658;BME280;20865;43.312;27.152;2023-04-08T04:33:33;100902.61;;;13.43;43.90
34658;BME280;20865;43.312;27.152;2023-04-08T04:35:59;100905.29;;;13.43;43.88
34658;BME280;20865;43.312;27.152;2023-04-08T04:38:26;100908.22;;;13.49;43.76
34658;BME280;20865;43.312;27.152;2023-04-08T04:40:53;100908.03;;;13.55;43.61
34658;BME280;20865;43.312;27.152;2023-04-08T04:43:20;100921.08;;;13.52;44.05
34658;BME280;20865;43.312;27.152;2023-04-08T04:45:46;100908.87;;;13.57;44.45
34658;BME280;20865;43.312;27.152;2023-04-08T04:48:13;100908.34;;;13.59;44.58
34658;BME280;20865;43.312;27.152;2023-04-08T04:50:40;100916.29;;;13.62;44.61
34658;BME280;20865;43.312;27.152;2023-04-08T04:53:07;100920.63;;;13.66;44.54
34658;BME280;20865;43.312;27.152;2023-04-08T04:55:34;100925.40;;;13.71;44.47
34658;BME280;20865;43.312;27.152;2023-04-08T04:58:01;100925.64;;;13.77;44.43
34658;BME280;20865;43.312;27.152;2023-04-08T05:00:28;100918.83;;;13.80;44.33
34658;BME280;20865;43.312;27.152;2023-04-08T05:02:55;100924.16;;;13.81;44.13
34658;BME280;20865;43.312;27.152;2023-04-08T05:05:21;100928.50;;;13.86;44.04
34658;BME280;20865;43.312;27.152;2023-04-08T05:07:48;100927.05;;;13.89;43.97
34658;BME280;20865;43.312;27.152;2023-04-08T05:10:15;100928.33;;;13.90;44.11
34658;BME280;20865;43.312;27.152;2023-04-08T05:12:42;100933.09;;;13.95;43.98
34658;BME280;20865;43.312;27.152;2023-04-08T05:15:09;100929.00;;;13.97;43.95
34658;BME280;20865;43.312;27.152;2023-04-08T05:17:36;100925.37;;;13.98;43.83
34658;BME280;20865;43.312;27.152;2023-04-08T05:20:03;100927.73;;;13.95;43.83
34658;BME280;20865;43.312;27.152;2023-04-08T05:22:30;100924.47;;;13.99;43.89
34658;BME280;20865;43.312;27.152;2023-04-08T05:24:57;100926.59;;;14.02;43.85
34658;BME280;20865;43.312;27.152;2023-04-08T05:27:24;100932.29;;;14.05;43.94
34658;BME280;20865;43.312;27.152;2023-04-08T05:29:51;100928.70;;;14.06;43.91
34658;BME280;20865;43.312;27.152;2023-04-08T05:32:18;100928.53;;;14.11;43.98
34658;BME280;20865;43.312;27.152;2023-04-08T05:34:45;100931.59;;;14.13;43.96
34658;BME280;20865;43.312;27.152;2023-04-08T05:37:12;100931.48;;;14.16;44.04
34658;BME280;20865;43.312;27.152;2023-04-08T05:39:39;100927.92;;;14.16;43.67
34658;BME280;20865;43.312;27.152;2023-04-08T05:42:07;100921.61;;;14.17;43.65
34658;BME280;20865;43.312;27.152;2023-04-08T05:44:34;100923.61;;;14.23;43.53
34658;BME280;20865;43.312;27.152;2023-04-08T05:47:01;100918.53;;;14.27;43.64
34658;BME280;20865;43.312;27.152;2023-04-08T05:49:27;100925.66;;;14.28;43.67
34658;BME280;20865;43.312;27.152;2023-04-08T05:51:54;100931.59;;;14.38;43.65
34658;BME280;20865;43.312;27.152;2023-04-08T05:54:21;100926.14;;;14.40;43.55
34658;BME280;20865;43.312;27.152;2023-04-08T05:56:48;100933.13;;;14.45;43.13
34658;BME280;20865;43.312;27.152;2023-04-08T05:59:15;100932.76;;;14.43;42.78
34658;BME280;20865;43.312;27.152;2023-04-08T06:01:41;100931.20;;;14.50;42.76
34658;BME280;20865;43.312;27.152;2023-04-08T06:04:08;100938.20;;;14.41;42.81
34658;BME280;20865;43.312;27.152;2023-04-08T06:06:39;100926.88;;;14.45;42.68
34658;BME280;20865;43.312;27.152;2023-04-08T06:09:05;100929.27;;;14.54;42.62
34658;BME280;20865;43.312;27.152;2023-04-08T06:11:32;100930.84;;;14.60;42.58
34658;BME280;20865;43.312;27.152;2023-04-08T06:13:58;100927.06;;;14.65;42.62
34658;BME280;20865;43.312;27.152;2023-04-08T06:16:25;100930.22;;;14.76;42.41
34658;BME280;20865;43.312;27.152;2023-04-08T06:18:52;100927.53;;;14.76;41.95
34658;BME280;20865;43.312;27.152;2023-04-08T06:21:19;100919.56;;;14.85;41.90
34658;BME280;20865;43.312;27.152;2023-04-08T06:23:46;100927.12;;;14.87;41.63
34658;BME280;20865;43.312;27.152;2023-04-08T06:26:13;100928.72;;;14.93;41.72
34658;BME280;20865;43.312;27.152;2023-04-08T06:28:40;100932.16;;;14.96;41.61
34658;BME280;20865;43.312;27.152;2023-04-08T06:31:07;100940.33;;;15.05;41.59
34658;BME280;20865;43.312;27.152;2023-04-08T06:33:34;100932.11;;;15.10;41.59
34658;BME280;20865;43.312;27.152;2023-04-08T06:36:04;100930.58;;;15.14;41.27
34658;BME280;20865;43.312;27.152;2023-04-08T06:38:33;100938.93;;;15.18;41.30
34658;BME280;20865;43.312;27.152;2023-04-08T06:41:06;100933.23;;;15.26;40.80
34658;BME280;20865;43.312;27.152;2023-04-08T06:43:33;100930.55;;;15.26;40.67
34658;BME280;20865;43.312;27.152;2023-04-08T06:46:02;100927.63;;;15.32;40.70
34658;BME280;20865;43.312;27.152;2023-04-08T06:48:29;100934.03;;;15.40;40.83
34658;BME280;20865;43.312;27.152;2023-04-08T06:50:56;100924.61;;;15.52;40.67
34658;BME280;20865;43.312;27.152;2023-04-08T06:53:23;100928.73;;;15.60;40.58
34658;BME280;20865;43.312;27.152;2023-04-08T06:55:50;100922.75;;;15.64;40.19
34658;BME280;20865;43.312;27.152;2023-04-08T06:58:18;100931.76;;;15.75;40.11
34658;BME280;20865;43.312;27.152;2023-04-08T07:00:45;100930.91;;;15.84;39.95
34658;BME280;20865;43.312;27.152;2023-04-08T07:03:12;100927.82;;;15.83;39.93
34658;BME280;20865;43.312;27.152;2023-04-08T07:05:39;100926.27;;;15.88;40.03
34658;BME280;20865;43.312;27.152;2023-04-08T07:08:07;100933.16;;;16.05;39.96
34658;BME280;20865;43.312;27.152;2023-04-08T07:10:34;100936.66;;;16.07;39.65
34658;BME280;20865;43.312;27.152;2023-04-08T07:13:01;100935.26;;;16.09;39.72
34658;BME280;20865;43.312;27.152;2023-04-08T07:15:28;100931.87;;;16.14;39.64
34658;BME280;20865;43.312;27.152;2023-04-08T07:17:55;100932.45;;;16.32;39.56
34658;BME280;20865;43.312;27.152;2023-04-08T07:20:22;100929.55;;;16.37;39.53
34658;BME280;20865;43.312;27.152;2023-04-08T07:22:49;100936.55;;;16.51;39.21
34658;BME280;20865;43.312;27.152;2023-04-08T07:25:16;100938.36;;;16.61;39.11
34658;BME280;20865;43.312;27.152;2023-04-08T07:27:43;100935.66;;;16.71;38.92
34658;BME280;20865;43.312;27.152;2023-04-08T07:30:10;100944.69;;;16.80;39.04
34658;BME280;20865;43.312;27.152;2023-04-08T07:32:37;100941.53;;;16.71;39.04
34658;BME280;20865;43.312;27.152;2023-04-08T07:35:04;100941.46;;;16.82;39.23
34658;BME280;20865;43.312;27.152;2023-04-08T07:37:31;100946.84;;;16.93;39.16
34658;BME280;20865;43.312;27.152;2023-04-08T07:39:58;100949.30;;;16.78;38.75
34658;BME280;20865;43.312;27.152;2023-04-08T07:42:25;100946.11;;;16.58;39.28
34658;BME280;20865;43.312;27.152;2023-04-08T07:44:52;100946.63;;;16.66;39.25
34658;BME280;20865;43.312;27.152;2023-04-08T07:47:19;100945.58;;;16.71;39.46
34658;BME280;20865;43.312;27.152;2023-04-08T07:49:45;100948.73;;;16.80;39.45
34658;BME280;20865;43.312;27.152;2023-04-08T07:52:13;100955.69;;;16.86;39.29
34658;BME280;20865;43.312;27.152;2023-04-08T07:54:40;100958.30;;;16.87;39.48
34658;BME280;20865;43.312;27.152;2023-04-08T07:57:07;100956.57;;;16.76;39.04
34658;BME280;20865;43.312;27.152;2023-04-08T07:59:33;100956.77;;;16.92;39.29
34658;BME280;20865;43.312;27.152;2023-04-08T08:02:00;100951.23;;;16.95;39.53
34658;BME280;20865;43.312;27.152;2023-04-08T08:04:27;100953.59;;;17.11;39.61
34658;BME280;20865;43.312;27.152;2023-04-08T08:06:54;100954.64;;;17.09;39.28
34658;BME280;20865;43.312;27.152;2023-04-08T08:09:21;100958.38;;;16.96;39.47
34658;BME280;20865;43.312;27.152;2023-04-08T08:11:47;100957.53;;;16.75;39.91
34658;BME280;20865;43.312;27.152;2023-04-08T08:14:14;100950.78;;;17.04;39.43
34658;BME280;20865;43.312;27.152;2023-04-08T08:16:41;100952.67;;;17.12;39.33
34658;BME280;20865;43.312;27.152;2023-04-08T08:19:09;100955.78;;;17.22;39.39
34658;BME280;20865;43.312;27.152;2023-04-08T08:21:37;100955.48;;;17.20;39.09
34658;BME280;20865;43.312;27.152;2023-04-08T08:24:04;100960.62;;;17.34;39.00
34658;BME280;20865;43.312;27.152;2023-04-08T08:26:34;100960.39;;;17.39;38.93
34658;BME280;20865;43.312;27.152;2023-04-08T08:29:05;100952.87;;;17.46;38.54
34658;BME280;20865;43.312;27.152;2023-04-08T08:31:34;100964.31;;;17.23;38.59
34658;BME280;20865;43.312;27.152;2023-04-08T08:34:01;100956.31;;;17.30;38.83
34658;BME280;20865;43.312;27.152;2023-04-08T08:36:27;100960.28;;;17.32;38.49
34658;BME280;20865;43.312;27.152;2023-04-08T08:38:56;100961.44;;;17.36;38.13
34658;BME280;20865;43.312;27.152;2023-04-08T08:41:22;100958.41;;;17.61;38.30
34658;BME280;20865;43.312;27.152;2023-04-08T08:43:49;100960.50;;;17.74;38.20
34658;BME280;20865;43.312;27.152;2023-04-08T08:46:17;100956.42;;;17.84;38.02
34658;BME280;20865;43.312;27.152;2023-04-08T08:48:44;100958.33;;;17.63;38.03
34658;BME280;20865;43.312;27.152;2023-04-08T08:51:11;100964.38;;;17.78;37.99
34658;BME280;20865;43.312;27.152;2023-04-08T08:53:38;100956.45;;;17.93;37.82
34658;BME280;20865;43.312;27.152;2023-04-08T08:56:07;100958.52;;;18.05;37.41
34658;BME280;20865;43.312;27.152;2023-04-08T08:58:34;100954.78;;;18.16;37.97
34658;BME280;20865;43.312;27.152;2023-04-08T09:01:02;100955.05;;;18.20;37.60
34658;BME280;20865;43.312;27.152;2023-04-08T09:03:28;100957.27;;;18.29;37.13
34658;BME280;20865;43.312;27.152;2023-04-08T09:05:57;100955.44;;;18.21;36.94
34658;BME280;20865;43.312;27.152;2023-04-08T09:10:56;100953.62;;;18.13;36.41
34658;BME280;20865;43.312;27.152;2023-04-08T09:13:24;100957.58;;;18.15;36.92
34658;BME280;20865;43.312;27.152;2023-04-08T09:16:03;100951.86;;;18.03;36.94
34658;BME280;20865;43.312;27.152;2023-04-08T09:18:31;100950.48;;;17.95;37.14
34658;BME280;20865;43.312;27.152;2023-04-08T09:20:59;100944.95;;;18.24;36.68
34658;BME280;20865;43.312;27.152;2023-04-08T09:26:07;100940.52;;;18.65;36.51
34658;BME280;20865;43.312;27.152;2023-04-08T09:28:34;100932.66;;;18.77;37.03
34658;BME280;20865;43.312;27.152;2023-04-08T09:31:04;100934.13;;;18.92;37.01
34658;BME280;20865;43.312;27.152;2023-04-08T09:33:29;100934.45;;;18.94;35.64
34658;BME280;20865;43.312;27.152;2023-04-08T09:35:56;100928.40;;;18.89;34.90
34658;BME280;20865;43.312;27.152;2023-04-08T09:38:23;100923.12;;;19.19;34.75
34658;BME280;20865;43.312;27.152;2023-04-08T09:40:50;100918.68;;;19.18;34.92
34658;BME280;20865;43.312;27.152;2023-04-08T09:43:17;100913.22;;;18.87;34.51
34658;BME280;20865;43.312;27.152;2023-04-08T09:45:46;100913.02;;;19.39;35.42
34658;BME280;20865;43.312;27.152;2023-04-08T09:48:16;100908.92;;;19.63;35.37
34658;BME280;20865;43.312;27.152;2023-04-08T09:50:42;100908.98;;;19.78;35.31
34658;BME280;20865;43.312;27.152;2023-04-08T09:53:18;100905.41;;;19.77;33.98
34658;BME280;20865;43.312;27.152;2023-04-08T09:55:37;100905.61;;;19.81;33.40
34658;BME280;20865;43.312;27.152;2023-04-08T09:58:10;100901.72;;;19.78;33.12
34658;BME280;20865;43.312;27.152;2023-04-08T10:00:34;100904.33;;;19.80;33.30
34658;BME280;20865;43.312;27.152;2023-04-08T10:05:36;100901.56;;;19.88;33.35
34658;BME280;20865;43.312;27.152;2023-04-08T10:08:03;100900.95;;;19.83;33.44
34658;BME280;20865;43.312;27.152;2023-04-08T10:10:31;100899.70;;;19.82;33.06
34658;BME280;20865;43.312;27.152;2023-04-08T10:12:59;100902.09;;;19.79;33.28
34658;BME280;20865;43.312;27.152;2023-04-08T10:15:27;100898.14;;;19.78;33.55
34658;BME280;20865;43.312;27.152;2023-04-08T10:23:13;100899.19;;;19.75;33.31
34658;BME280;20865;43.312;27.152;2023-04-08T10:25:41;100897.55;;;19.80;33.40
34658;BME280;20865;43.312;27.152;2023-04-08T10:30:45;100907.49;;;19.72;33.61
34658;BME280;20865;43.312;27.152;2023-04-08T10:36:00;100895.78;;;19.71;33.02
34658;BME280;20865;43.312;27.152;2023-04-08T10:38:27;100887.63;;;19.56;31.80
34658;BME280;20865;43.312;27.152;2023-04-08T10:40:54;100891.76;;;19.63;31.96
34658;BME280;20865;43.312;27.152;2023-04-08T10:43:21;100885.78;;;19.65;32.09
34658;BME280;20865;43.312;27.152;2023-04-08T10:45:48;100882.41;;;19.68;32.20
34658;BME280;20865;43.312;27.152;2023-04-08T10:48:18;100882.41;;;19.68;32.59
34658;BME280;20865;43.312;27.152;2023-04-08T10:50:55;100893.63;;;19.69;32.67
34658;BME280;20865;43.312;27.152;2023-04-08T10:53:25;100890.05;;;19.69;32.97
34658;BME280;20865;43.312;27.152;2023-04-08T10:55:53;100889.73;;;19.66;33.07
34658;BME280;20865;43.312;27.152;2023-04-08T10:58:20;100887.55;;;19.73;33.73
34658;BME280;20865;43.312;27.152;2023-04-08T11:00:47;100890.08;;;19.76;34.47
34658;BME280;20865;43.312;27.152;2023-04-08T11:03:13;100886.63;;;19.81;34.33
34658;BME280;20865;43.312;27.152;2023-04-08T11:05:41;100892.44;;;19.82;34.41
34658;BME280;20865;43.312;27.152;2023-04-08T11:08:08;100892.89;;;19.74;35.11
34658;BME280;20865;43.312;27.152;2023-04-08T11:10:38;100889.19;;;19.91;35.35
34658;BME280;20865;43.312;27.152;2023-04-08T11:13:07;100885.04;;;20.00;35.19
34658;BME280;20865;43.312;27.152;2023-04-08T11:15:37;100884.33;;;19.89;35.05
34658;BME280;20865;43.312;27.152;2023-04-08T11:18:04;100881.13;;;19.90;34.54
34658;BME280;20865;43.312;27.152;2023-04-08T11:20:31;100875.16;;;19.99;34.60
34658;BME280;20865;43.312;27.152;2023-04-08T11:23:02;100874.42;;;20.18;35.57
34658;BME280;20865;43.312;27.152;2023-04-08T11:25:29;100874.94;;;20.32;34.93
34658;BME280;20865;43.312;27.152;2023-04-08T11:27:56;100869.24;;;20.37;34.30
34658;BME280;20865;43.312;27.152;2023-04-08T11:30:25;100868.58;;;20.48;34.74
34658;BME280;20865;43.312;27.152;2023-04-08T11:32:52;100856.25;;;20.49;34.70
34658;BME280;20865;43.312;27.152;2023-04-08T11:35:20;100857.42;;;20.45;34.87
34658;BME280;20865;43.312;27.152;2023-04-08T11:37:47;100854.70;;;20.31;34.65
34658;BME280;20865;43.312;27.152;2023-04-08T11:40:18;100860.23;;;20.36;34.05
34658;BME280;20865;43.312;27.152;2023-04-08T11:42:42;100859.56;;;20.40;34.12
34658;BME280;20865;43.312;27.152;2023-04-08T11:45:10;100852.64;;;20.20;32.53
34658;BME280;20865;43.312;27.152;2023-04-08T11:47:37;100854.83;;;19.99;33.16
34658;BME280;20865;43.312;27.152;2023-04-08T11:50:04;100855.66;;;19.85;33.68
34658;BME280;20865;43.312;27.152;2023-04-08T11:52:47;100855.10;;;19.64;33.62
34658;BME280;20865;43.312;27.152;2023-04-08T11:55:24;100857.14;;;19.68;33.68
34658;BME280;20865;43.312;27.152;2023-04-08T11:57:51;100848.95;;;19.61;33.24
34658;BME280;20865;43.312;27.152;2023-04-08T12:00:19;100851.36;;;19.19;34.39
34658;BME280;20865;43.312;27.152;2023-04-08T12:02:46;100856.47;;;19.33;34.45
34658;BME280;20865;43.312;27.152;2023-04-08T12:05:14;100851.97;;;19.09;33.52
34658;BME280;20865;43.312;27.152;2023-04-08T12:07:41;100850.91;;;19.27;32.64
34658;BME280;20865;43.312;27.152;2023-04-08T12:10:08;100846.05;;;19.57;32.02
34658;BME280;20865;43.312;27.152;2023-04-08T12:12:36;100840.40;;;19.68;31.33
34658;BME280;20865;43.312;27.152;2023-04-08T12:15:03;100845.02;;;19.66;31.81
34658;BME280;20865;43.312;27.152;2023-04-08T12:17:30;100842.23;;;19.13;32.96
34658;BME280;20865;43.312;27.152;2023-04-08T12:19:56;100845.15;;;19.33;33.35
34658;BME280;20865;43.312;27.152;2023-04-08T12:22:23;100842.19;;;19.22;34.06
34658;BME280;20865;43.312;27.152;2023-04-08T12:24:50;100844.41;;;19.07;33.52
34658;BME280;20865;43.312;27.152;2023-04-08T12:27:17;100832.72;;;19.22;33.37
34658;BME280;20865;43.312;27.152;2023-04-08T12:29:44;100839.80;;;19.47;33.30
34658;BME280;20865;43.312;27.152;2023-04-08T12:32:11;100838.75;;;19.50;33.77
34658;BME280;20865;43.312;27.152;2023-04-08T12:34:39;100829.09;;;19.53;34.04
34658;BME280;20865;43.312;27.152;2023-04-08T12:37:06;100831.55;;;19.81;33.66
34658;BME280;20865;43.312;27.152;2023-04-08T12:39:33;100822.35;;;19.90;33.41
34658;BME280;20865;43.312;27.152;2023-04-08T12:41:59;100816.53;;;19.82;33.06
34658;BME280;20865;43.312;27.152;2023-04-08T12:44:26;100814.98;;;19.78;33.89
34658;BME280;20865;43.312;27.152;2023-04-08T12:46:53;100818.42;;;20.03;33.76
34658;BME280;20865;43.312;27.152;2023-04-08T12:49:20;100816.00;;;19.98;34.10
34658;BME280;20865;43.312;27.152;2023-04-08T12:51:47;100809.78;;;19.96;33.67
34658;BME280;20865;43.312;27.152;2023-04-08T12:54:14;100803.90;;;20.18;33.40
34658;BME280;20865;43.312;27.152;2023-04-08T12:56:41;100801.49;;;20.42;33.06
34658;BME280;20865;43.312;27.152;2023-04-08T12:59:08;100804.80;;;20.83;33.07
34658;BME280;20865;43.312;27.152;2023-04-08T13:01:35;100803.60;;;20.94;34.03
34658;BME280;20865;43.312;27.152;2023-04-08T13:04:02;100804.94;;;21.02;33.62
34658;BME280;20865;43.312;27.152;2023-04-08T13:06:29;100798.40;;;21.18;33.00